NCAR-RAP Real-Time Weather Data

Output produced by METARs form (15 July 2024  03:11 UTC)
found at http://weather.rap.ucar.edu/surface/
 
Conditions at: KSPI observed 15 July 2024  02:52 UTC
Temperature: 28.3°C (83°F)
Dewpoint: 23.3°C (74°F) [RH = 74%]
Pressure (altimeter): 29.90 inches Hg (1012.6 mb)
[Sea-level pressure: 1011.9 mb]
Winds: from the SW (220 degrees) at 6 MPH (5 knots; 2.6 m/s)
Visibility: 10 or more miles (16+ km)
Ceiling: at least 12,000 feet AGL
Clouds: sky clear below 12,000 feet AGL
Present Weather: no significant weather observed at this time
KSPI 150252Z 22005KT 10SM CLR 28/23 A2990 RMK AO2 RAE06 SLP119 P0000 60000 T02830233 55005